SCSE/LSC METAR and TAF weather

Enter ICAO airport designator
Station Type Date Time Source
SCSE METAR 2021/05/15 02:00 UTC NOAA

SCSE 150200Z AUTO 30004KT 250V330 CAVOK 14/12 Q1014


Station Type Date Time Source
SCSE Decoded METAR 2021/05/15 02:00 UTC NOAA

La Serena, Chile (SCSE) 29-54S 071-12W
May 14, 2021 - 10:00 PM EDT / 2021.05.15 0200 UTC
Wind: from the WNW (300 degrees) at 5 MPH (4 KT) (direction variable):0
Visibility: greater than 7 mile(s):0
Temperature: 57 F (14 C)
Dew Point: 53 F (12 C)
Relative Humidity: 87%
Pressure (altimeter): 29.94 in. Hg (1014 hPa)
ob: SCSE 150200Z AUTO 30004KT 250V330 CAVOK 14/12 Q1014
cycle: 2

Station Type Date Time Source
SCSE TAF 2021/05/15 00:00 UTC NOAA

TAF SCSE 142200Z 1500/1524 28008KT CAVOK TX19/1518Z TN10/1511Z
BECMG 1501/1503 20004KT
BECMG 1505/1507 BKN010
BECMG 1514/1516 30005KT CAVOK

Example: see airport list